sensor_id;sensor_type;location;lat;lon;timestamp;pressure;altitude;pressure_sealevel;temperature;humidity
64354;BME280;50681;53.334;-6.536;2023-07-28T00:01:32;66587.59;;;-147.51;100.00
64354;BME280;50681;53.334;-6.536;2023-07-28T00:03:59;66587.59;;;-147.51;100.00
64354;BME280;50681;53.334;-6.536;2023-07-28T00:06:24;66587.59;;;-147.51;100.00
64354;BME280;50681;53.334;-6.536;2023-07-28T00:08:50;66587.59;;;-147.51;100.00
64354;BME280;50681;53.334;-6.536;2023-07-28T00:11:16;66587.59;;;-147.51;100.00
64354;BME280;50681;53.334;-6.536;2023-07-28T00:13:42;66587.59;;;-147.51;100.00
64354;BME280;50681;53.334;-6.536;2023-07-28T00:16:09;66587.59;;;-147.51;100.00
64354;BME280;50681;53.334;-6.536;2023-07-28T00:18:35;66587.59;;;-147.51;100.00
64354;BME280;50681;53.334;-6.536;2023-07-28T00:21:01;66587.59;;;-147.51;100.00
64354;BME280;50681;53.334;-6.536;2023-07-28T00:23:26;66587.59;;;-147.51;100.00
64354;BME280;50681;53.334;-6.536;2023-07-28T00:25:52;66587.59;;;-147.51;100.00
64354;BME280;50681;53.334;-6.536;2023-07-28T00:28:17;66587.59;;;-147.51;100.00
64354;BME280;50681;53.334;-6.536;2023-07-28T00:30:44;66587.59;;;-147.51;100.00
64354;BME280;50681;53.334;-6.536;2023-07-28T00:33:09;66587.59;;;-147.51;100.00
64354;BME280;50681;53.334;-6.536;2023-07-28T00:35:35;66587.59;;;-147.51;100.00
64354;BME280;50681;53.334;-6.536;2023-07-28T00:38:00;66587.59;;;-147.51;100.00
64354;BME280;50681;53.334;-6.536;2023-07-28T00:40:26;66587.59;;;-147.51;100.00
64354;BME280;50681;53.334;-6.536;2023-07-28T00:42:51;66587.59;;;-147.51;100.00
64354;BME280;50681;53.334;-6.536;2023-07-28T00:45:17;66587.59;;;-147.51;100.00
64354;BME280;50681;53.334;-6.536;2023-07-28T00:47:42;66587.59;;;-147.51;100.00
64354;BME280;50681;53.334;-6.536;2023-07-28T00:50:09;66587.59;;;-147.51;100.00
64354;BME280;50681;53.334;-6.536;2023-07-28T00:52:36;66587.59;;;-147.51;100.00
64354;BME280;50681;53.334;-6.536;2023-07-28T00:55:01;66587.59;;;-147.51;100.00
64354;BME280;50681;53.334;-6.536;2023-07-28T00:57:27;66587.59;;;-147.51;100.00
64354;BME280;50681;53.334;-6.536;2023-07-28T00:59:52;66587.59;;;-147.51;100.00
64354;BME280;50681;53.334;-6.536;2023-07-28T01:02:19;66587.59;;;-147.51;100.00
64354;BME280;50681;53.334;-6.536;2023-07-28T01:04:45;66587.59;;;-147.51;100.00
64354;BME280;50681;53.334;-6.536;2023-07-28T01:07:20;66587.59;;;-147.51;100.00
64354;BME280;50681;53.334;-6.536;2023-07-28T01:10:24;66587.59;;;-147.51;100.00
64354;BME280;50681;53.334;-6.536;2023-07-28T01:12:51;66587.59;;;-147.51;100.00
64354;BME280;50681;53.334;-6.536;2023-07-28T01:15:17;66587.59;;;-147.51;100.00
64354;BME280;50681;53.334;-6.536;2023-07-28T01:17:42;66587.59;;;-147.51;100.00
64354;BME280;50681;53.334;-6.536;2023-07-28T01:20:08;66587.59;;;-147.51;100.00
64354;BME280;50681;53.334;-6.536;2023-07-28T01:25:32;66587.59;;;-147.51;100.00
64354;BME280;50681;53.334;-6.536;2023-07-28T01:28:02;66587.59;;;-147.51;100.00
64354;BME280;50681;53.334;-6.536;2023-07-28T01:30:28;66587.59;;;-147.51;100.00
64354;BME280;50681;53.334;-6.536;2023-07-28T01:32:55;66587.59;;;-147.51;100.00
64354;BME280;50681;53.334;-6.536;2023-07-28T01:35:21;66587.59;;;-147.51;100.00
64354;BME280;50681;53.334;-6.536;2023-07-28T01:37:47;66587.59;;;-147.51;100.00
64354;BME280;50681;53.334;-6.536;2023-07-28T01:40:17;66587.59;;;-147.51;100.00
64354;BME280;50681;53.334;-6.536;2023-07-28T01:42:42;66587.59;;;-147.51;100.00
64354;BME280;50681;53.334;-6.536;2023-07-28T01:45:08;66587.59;;;-147.51;100.00
64354;BME280;50681;53.334;-6.536;2023-07-28T01:47:33;66587.59;;;-147.51;100.00
64354;BME280;50681;53.334;-6.536;2023-07-28T01:49:59;66587.59;;;-147.51;100.00
64354;BME280;50681;53.334;-6.536;2023-07-28T01:52:24;66587.59;;;-147.51;100.00
64354;BME280;50681;53.334;-6.536;2023-07-28T01:54:50;66587.59;;;-147.51;100.00
64354;BME280;50681;53.334;-6.536;2023-07-28T01:57:16;66587.59;;;-147.51;100.00
64354;BME280;50681;53.334;-6.536;2023-07-28T01:59:42;66587.59;;;-147.51;100.00
64354;BME280;50681;53.334;-6.536;2023-07-28T02:02:09;66587.59;;;-147.51;100.00
64354;BME280;50681;53.334;-6.536;2023-07-28T02:04:34;66587.59;;;-147.51;100.00
64354;BME280;50681;53.334;-6.536;2023-07-28T02:07:00;66587.59;;;-147.51;100.00
64354;BME280;50681;53.334;-6.536;2023-07-28T02:09:25;66587.59;;;-147.51;100.00
64354;BME280;50681;53.334;-6.536;2023-07-28T02:11:52;66587.59;;;-147.51;100.00
64354;BME280;50681;53.334;-6.536;2023-07-28T02:14:17;66587.59;;;-147.51;100.00
64354;BME280;50681;53.334;-6.536;2023-07-28T02:16:42;66587.59;;;-147.51;100.00
64354;BME280;50681;53.334;-6.536;2023-07-28T02:19:08;66587.59;;;-147.51;100.00
64354;BME280;50681;53.334;-6.536;2023-07-28T02:21:33;66587.59;;;-147.51;100.00
64354;BME280;50681;53.334;-6.536;2023-07-28T02:23:59;66587.59;;;-147.51;100.00
64354;BME280;50681;53.334;-6.536;2023-07-28T02:26:25;66587.59;;;-147.51;100.00
64354;BME280;50681;53.334;-6.536;2023-07-28T02:28:51;66587.59;;;-147.51;100.00
64354;BME280;50681;53.334;-6.536;2023-07-28T02:31:17;66587.59;;;-147.51;100.00
64354;BME280;50681;53.334;-6.536;2023-07-28T02:33:42;66587.59;;;-147.51;100.00
64354;BME280;50681;53.334;-6.536;2023-07-28T02:36:07;66587.59;;;-147.51;100.00
64354;BME280;50681;53.334;-6.536;2023-07-28T02:38:33;66587.59;;;-147.51;100.00
64354;BME280;50681;53.334;-6.536;2023-07-28T02:40:58;66587.59;;;-147.51;100.00
64354;BME280;50681;53.334;-6.536;2023-07-28T02:43:24;66587.59;;;-147.51;100.00
64354;BME280;50681;53.334;-6.536;2023-07-28T02:45:56;66587.59;;;-147.51;100.00
64354;BME280;50681;53.334;-6.536;2023-07-28T02:48:22;66587.59;;;-147.51;100.00
64354;BME280;50681;53.334;-6.536;2023-07-28T02:50:50;66587.59;;;-147.51;100.00
64354;BME280;50681;53.334;-6.536;2023-07-28T02:53:15;66587.59;;;-147.51;100.00
64354;BME280;50681;53.334;-6.536;2023-07-28T02:55:44;66587.59;;;-147.51;100.00
64354;BME280;50681;53.334;-6.536;2023-07-28T03:01:32;66587.59;;;-147.51;100.00
64354;BME280;50681;53.334;-6.536;2023-07-28T03:04:00;66587.59;;;-147.51;100.00
64354;BME280;50681;53.334;-6.536;2023-07-28T03:06:25;66587.59;;;-147.51;100.00
64354;BME280;50681;53.334;-6.536;2023-07-28T03:08:53;66587.59;;;-147.51;100.00
64354;BME280;50681;53.334;-6.536;2023-07-28T03:11:18;66587.59;;;-147.51;100.00
64354;BME280;50681;53.334;-6.536;2023-07-28T03:13:44;66587.59;;;-147.51;100.00
64354;BME280;50681;53.334;-6.536;2023-07-28T03:16:09;66587.59;;;-147.51;100.00
64354;BME280;50681;53.334;-6.536;2023-07-28T03:18:35;66587.59;;;-147.51;100.00
64354;BME280;50681;53.334;-6.536;2023-07-28T03:21:01;66587.59;;;-147.51;100.00
64354;BME280;50681;53.334;-6.536;2023-07-28T03:23:27;66587.59;;;-147.51;100.00
64354;BME280;50681;53.334;-6.536;2023-07-28T03:25:53;66587.59;;;-147.51;100.00
64354;BME280;50681;53.334;-6.536;2023-07-28T03:28:18;66587.59;;;-147.51;100.00
64354;BME280;50681;53.334;-6.536;2023-07-28T03:30:44;66587.59;;;-147.51;100.00
64354;BME280;50681;53.334;-6.536;2023-07-28T03:33:09;66587.59;;;-147.51;100.00
64354;BME280;50681;53.334;-6.536;2023-07-28T03:35:35;66587.59;;;-147.51;100.00
64354;BME280;50681;53.334;-6.536;2023-07-28T03:38:00;66587.59;;;-147.51;100.00
64354;BME280;50681;53.334;-6.536;2023-07-28T03:40:26;66587.59;;;-147.51;100.00
64354;BME280;50681;53.334;-6.536;2023-07-28T03:42:52;66587.59;;;-147.51;100.00
64354;BME280;50681;53.334;-6.536;2023-07-28T03:45:18;66587.59;;;-147.51;100.00
64354;BME280;50681;53.334;-6.536;2023-07-28T03:47:43;66587.59;;;-147.51;100.00
64354;BME280;50681;53.334;-6.536;2023-07-28T03:50:09;66587.59;;;-147.51;100.00
64354;BME280;50681;53.334;-6.536;2023-07-28T03:52:34;66587.59;;;-147.51;100.00
64354;BME280;50681;53.334;-6.536;2023-07-28T03:55:00;66587.59;;;-147.51;100.00
64354;BME280;50681;53.334;-6.536;2023-07-28T03:57:25;66587.59;;;-147.51;100.00
64354;BME280;50681;53.334;-6.536;2023-07-28T03:59:51;66587.59;;;-147.51;100.00
64354;BME280;50681;53.334;-6.536;2023-07-28T04:02:16;66587.59;;;-147.51;100.00
64354;BME280;50681;53.334;-6.536;2023-07-28T04:04:42;66587.59;;;-147.51;100.00
64354;BME280;50681;53.334;-6.536;2023-07-28T04:07:09;66587.59;;;-147.51;100.00
64354;BME280;50681;53.334;-6.536;2023-07-28T04:09:34;66587.59;;;-147.51;100.00
64354;BME280;50681;53.334;-6.536;2023-07-28T04:12:00;66587.59;;;-147.51;100.00
64354;BME280;50681;53.334;-6.536;2023-07-28T04:14:25;66587.59;;;-147.51;100.00
64354;BME280;50681;53.334;-6.536;2023-07-28T04:16:52;66587.59;;;-147.51;100.00
64354;BME280;50681;53.334;-6.536;2023-07-28T04:19:17;66587.59;;;-147.51;100.00
64354;BME280;50681;53.334;-6.536;2023-07-28T04:21:43;66587.59;;;-147.51;100.00
64354;BME280;50681;53.334;-6.536;2023-07-28T04:24:09;66587.59;;;-147.51;100.00
64354;BME280;50681;53.334;-6.536;2023-07-28T04:26:34;66587.59;;;-147.51;100.00
64354;BME280;50681;53.334;-6.536;2023-07-28T04:29:00;66587.59;;;-147.51;100.00
64354;BME280;50681;53.334;-6.536;2023-07-28T04:31:26;66587.59;;;-147.51;100.00
64354;BME280;50681;53.334;-6.536;2023-07-28T04:33:51;66587.59;;;-147.51;100.00
64354;BME280;50681;53.334;-6.536;2023-07-28T04:36:17;66587.59;;;-147.51;100.00
64354;BME280;50681;53.334;-6.536;2023-07-28T04:38:42;66587.59;;;-147.51;100.00
64354;BME280;50681;53.334;-6.536;2023-07-28T04:41:07;66587.59;;;-147.51;100.00
64354;BME280;50681;53.334;-6.536;2023-07-28T04:43:33;66587.59;;;-147.51;100.00
64354;BME280;50681;53.334;-6.536;2023-07-28T04:45:58;66587.59;;;-147.51;100.00
64354;BME280;50681;53.334;-6.536;2023-07-28T04:48:24;66587.59;;;-147.51;100.00
64354;BME280;50681;53.334;-6.536;2023-07-28T04:50:49;66587.59;;;-147.51;100.00
64354;BME280;50681;53.334;-6.536;2023-07-28T04:53:15;66587.59;;;-147.51;100.00
64354;BME280;50681;53.334;-6.536;2023-07-28T04:55:40;66587.59;;;-147.51;100.00
64354;BME280;50681;53.334;-6.536;2023-07-28T04:58:06;66587.59;;;-147.51;100.00
64354;BME280;50681;53.334;-6.536;2023-07-28T05:00:31;66587.59;;;-147.51;100.00
64354;BME280;50681;53.334;-6.536;2023-07-28T05:02:58;66587.59;;;-147.51;100.00
64354;BME280;50681;53.334;-6.536;2023-07-28T05:05:24;66587.59;;;-147.51;100.00
64354;BME280;50681;53.334;-6.536;2023-07-28T05:07:51;66587.59;;;-147.51;100.00
64354;BME280;50681;53.334;-6.536;2023-07-28T05:10:17;66587.59;;;-147.51;100.00
64354;BME280;50681;53.334;-6.536;2023-07-28T05:12:43;66587.59;;;-147.51;100.00
64354;BME280;50681;53.334;-6.536;2023-07-28T05:15:08;66587.59;;;-147.51;100.00
64354;BME280;50681;53.334;-6.536;2023-07-28T05:17:36;66587.59;;;-147.51;100.00
64354;BME280;50681;53.334;-6.536;2023-07-28T05:20:02;66587.59;;;-147.51;100.00
64354;BME280;50681;53.334;-6.536;2023-07-28T05:22:29;66587.59;;;-147.51;100.00
64354;BME280;50681;53.334;-6.536;2023-07-28T05:24:54;66587.59;;;-147.51;100.00
64354;BME280;50681;53.334;-6.536;2023-07-28T05:27:20;66587.59;;;-147.51;100.00
64354;BME280;50681;53.334;-6.536;2023-07-28T05:29:45;66587.59;;;-147.51;100.00
64354;BME280;50681;53.334;-6.536;2023-07-28T05:32:11;66587.59;;;-147.51;100.00
64354;BME280;50681;53.334;-6.536;2023-07-28T05:34:36;66587.59;;;-147.51;100.00
64354;BME280;50681;53.334;-6.536;2023-07-28T05:37:02;66587.59;;;-147.51;100.00
64354;BME280;50681;53.334;-6.536;2023-07-28T05:39:27;66587.59;;;-147.51;100.00
64354;BME280;50681;53.334;-6.536;2023-07-28T05:41:55;66587.59;;;-147.51;100.00
64354;BME280;50681;53.334;-6.536;2023-07-28T05:44:21;66587.59;;;-147.51;100.00
64354;BME280;50681;53.334;-6.536;2023-07-28T05:46:46;66587.59;;;-147.51;100.00
64354;BME280;50681;53.334;-6.536;2023-07-28T05:49:13;66587.59;;;-147.51;100.00
64354;BME280;50681;53.334;-6.536;2023-07-28T05:51:41;66587.59;;;-147.51;100.00
64354;BME280;50681;53.334;-6.536;2023-07-28T05:54:07;66587.59;;;-147.51;100.00
64354;BME280;50681;53.334;-6.536;2023-07-28T05:56:32;66587.59;;;-147.51;100.00
64354;BME280;50681;53.334;-6.536;2023-07-28T05:58:57;66587.59;;;-147.51;100.00
64354;BME280;50681;53.334;-6.536;2023-07-28T06:01:23;66587.59;;;-147.51;100.00
64354;BME280;50681;53.334;-6.536;2023-07-28T06:03:50;66587.59;;;-147.51;100.00
64354;BME280;50681;53.334;-6.536;2023-07-28T06:06:17;66587.59;;;-147.51;100.00
64354;BME280;50681;53.334;-6.536;2023-07-28T06:08:43;66587.59;;;-147.51;100.00
64354;BME280;50681;53.334;-6.536;2023-07-28T06:11:09;66587.59;;;-147.51;100.00
64354;BME280;50681;53.334;-6.536;2023-07-28T06:13:35;66587.59;;;-147.51;100.00
64354;BME280;50681;53.334;-6.536;2023-07-28T06:16:00;66587.59;;;-147.51;100.00
64354;BME280;50681;53.334;-6.536;2023-07-28T06:18:26;66587.59;;;-147.51;100.00
64354;BME280;50681;53.334;-6.536;2023-07-28T06:20:51;66587.59;;;-147.51;100.00
64354;BME280;50681;53.334;-6.536;2023-07-28T06:23:17;66587.59;;;-147.51;100.00
64354;BME280;50681;53.334;-6.536;2023-07-28T06:25:42;66587.59;;;-147.51;100.00
64354;BME280;50681;53.334;-6.536;2023-07-28T06:28:10;66587.59;;;-147.51;100.00
64354;BME280;50681;53.334;-6.536;2023-07-28T06:30:36;66587.59;;;-147.51;100.00
64354;BME280;50681;53.334;-6.536;2023-07-28T06:33:01;66587.59;;;-147.51;100.00
64354;BME280;50681;53.334;-6.536;2023-07-28T06:35:28;66587.59;;;-147.51;100.00
64354;BME280;50681;53.334;-6.536;2023-07-28T06:37:53;66587.59;;;-147.51;100.00
64354;BME280;50681;53.334;-6.536;2023-07-28T06:40:19;66587.59;;;-147.51;100.00
64354;BME280;50681;53.334;-6.536;2023-07-28T06:42:45;66587.59;;;-147.51;100.00
64354;BME280;50681;53.334;-6.536;2023-07-28T06:45:11;66587.59;;;-147.51;100.00
64354;BME280;50681;53.334;-6.536;2023-07-28T06:47:39;66587.59;;;-147.51;100.00
64354;BME280;50681;53.334;-6.536;2023-07-28T06:50:05;66587.59;;;-147.51;100.00
64354;BME280;50681;53.334;-6.536;2023-07-28T06:52:31;66587.59;;;-147.51;100.00
64354;BME280;50681;53.334;-6.536;2023-07-28T06:54:56;66587.59;;;-147.51;100.00
64354;BME280;50681;53.334;-6.536;2023-07-28T06:57:22;66587.59;;;-147.51;100.00
64354;BME280;50681;53.334;-6.536;2023-07-28T06:59:48;66587.59;;;-147.51;100.00
64354;BME280;50681;53.334;-6.536;2023-07-28T07:02:13;66587.59;;;-147.51;100.00
64354;BME280;50681;53.334;-6.536;2023-07-28T07:04:39;66587.59;;;-147.51;100.00
64354;BME280;50681;53.334;-6.536;2023-07-28T07:07:05;66587.59;;;-147.51;100.00
64354;BME280;50681;53.334;-6.536;2023-07-28T07:09:30;66587.59;;;-147.51;100.00
64354;BME280;50681;53.334;-6.536;2023-07-28T07:11:56;66587.59;;;-147.51;100.00
64354;BME280;50681;53.334;-6.536;2023-07-28T07:14:21;66587.59;;;-147.51;100.00
64354;BME280;50681;53.334;-6.536;2023-07-28T07:16:46;66587.59;;;-147.51;100.00
64354;BME280;50681;53.334;-6.536;2023-07-28T07:19:12;66587.59;;;-147.51;100.00
64354;BME280;50681;53.334;-6.536;2023-07-28T07:21:38;66587.59;;;-147.51;100.00
64354;BME280;50681;53.334;-6.536;2023-07-28T07:24:04;66587.59;;;-147.51;100.00
64354;BME280;50681;53.334;-6.536;2023-07-28T07:26:31;66587.59;;;-147.51;100.00
64354;BME280;50681;53.334;-6.536;2023-07-28T07:28:57;66587.59;;;-147.51;100.00
64354;BME280;50681;53.334;-6.536;2023-07-28T07:31:23;66587.59;;;-147.51;100.00
64354;BME280;50681;53.334;-6.536;2023-07-28T07:33:49;66587.59;;;-147.51;100.00
64354;BME280;50681;53.334;-6.536;2023-07-28T07:36:15;66587.59;;;-147.51;100.00
64354;BME280;50681;53.334;-6.536;2023-07-28T07:38:42;66587.59;;;-147.51;100.00
64354;BME280;50681;53.334;-6.536;2023-07-28T07:41:08;66587.59;;;-147.51;100.00
64354;BME280;50681;53.334;-6.536;2023-07-28T07:43:35;66587.59;;;-147.51;100.00
64354;BME280;50681;53.334;-6.536;2023-07-28T07:46:01;66587.59;;;-147.51;100.00
64354;BME280;50681;53.334;-6.536;2023-07-28T07:48:27;66587.59;;;-147.51;100.00
64354;BME280;50681;53.334;-6.536;2023-07-28T07:50:52;66587.59;;;-147.51;100.00
64354;BME280;50681;53.334;-6.536;2023-07-28T07:53:19;66587.59;;;-147.51;100.00
64354;BME280;50681;53.334;-6.536;2023-07-28T07:55:45;66587.59;;;-147.51;100.00
64354;BME280;50681;53.334;-6.536;2023-07-28T07:58:10;66587.59;;;-147.51;100.00
64354;BME280;50681;53.334;-6.536;2023-07-28T08:00:37;66587.59;;;-147.51;100.00
64354;BME280;50681;53.334;-6.536;2023-07-28T08:03:04;66587.59;;;-147.51;100.00
64354;BME280;50681;53.334;-6.536;2023-07-28T08:05:30;66587.59;;;-147.51;100.00
64354;BME280;50681;53.334;-6.536;2023-07-28T08:08:05;66587.59;;;-147.51;100.00
64354;BME280;50681;53.334;-6.536;2023-07-28T08:10:32;66587.59;;;-147.51;100.00
64354;BME280;50681;53.334;-6.536;2023-07-28T08:12:59;66587.59;;;-147.51;100.00
64354;BME280;50681;53.334;-6.536;2023-07-28T08:15:25;66587.59;;;-147.51;100.00
64354;BME280;50681;53.334;-6.536;2023-07-28T08:17:51;66587.59;;;-147.51;100.00
64354;BME280;50681;53.334;-6.536;2023-07-28T08:20:17;66587.59;;;-147.51;100.00
64354;BME280;50681;53.334;-6.536;2023-07-28T08:22:44;66587.59;;;-147.51;100.00
64354;BME280;50681;53.334;-6.536;2023-07-28T08:25:11;66587.59;;;-147.51;100.00
64354;BME280;50681;53.334;-6.536;2023-07-28T08:27:36;66587.59;;;-147.51;100.00
64354;BME280;50681;53.334;-6.536;2023-07-28T08:30:03;66587.59;;;-147.51;100.00
64354;BME280;50681;53.334;-6.536;2023-07-28T08:32:28;66587.59;;;-147.51;100.00
64354;BME280;50681;53.334;-6.536;2023-07-28T08:34:54;66587.59;;;-147.51;100.00
64354;BME280;50681;53.334;-6.536;2023-07-28T08:37:35;66587.59;;;-147.51;100.00
64354;BME280;50681;53.334;-6.536;2023-07-28T08:40:01;66587.59;;;-147.51;100.00
64354;BME280;50681;53.334;-6.536;2023-07-28T08:42:29;66587.59;;;-147.51;100.00
64354;BME280;50681;53.334;-6.536;2023-07-28T08:44:54;66587.59;;;-147.51;100.00
64354;BME280;50681;53.334;-6.536;2023-07-28T08:47:23;66587.59;;;-147.51;100.00
64354;BME280;50681;53.334;-6.536;2023-07-28T08:49:55;66587.59;;;-147.51;100.00
64354;BME280;50681;53.334;-6.536;2023-07-28T08:52:23;66587.59;;;-147.51;100.00
64354;BME280;50681;53.334;-6.536;2023-07-28T08:54:49;66587.59;;;-147.51;100.00
64354;BME280;50681;53.334;-6.536;2023-07-28T08:57:16;66587.59;;;-147.51;100.00
64354;BME280;50681;53.334;-6.536;2023-07-28T08:59:42;66587.59;;;-147.51;100.00
64354;BME280;50681;53.334;-6.536;2023-07-28T09:02:14;66587.59;;;-147.51;100.00
64354;BME280;50681;53.334;-6.536;2023-07-28T09:04:42;66587.59;;;-147.51;100.00
64354;BME280;50681;53.334;-6.536;2023-07-28T09:07:07;66587.59;;;-147.51;100.00
64354;BME280;50681;53.334;-6.536;2023-07-28T09:09:33;66587.59;;;-147.51;100.00
64354;BME280;50681;53.334;-6.536;2023-07-28T09:12:06;66587.59;;;-147.51;100.00
64354;BME280;50681;53.334;-6.536;2023-07-28T09:14:35;66587.59;;;-147.51;100.00
64354;BME280;50681;53.334;-6.536;2023-07-28T09:17:10;66587.59;;;-147.51;100.00
64354;BME280;50681;53.334;-6.536;2023-07-28T09:19:52;66587.59;;;-147.51;100.00
64354;BME280;50681;53.334;-6.536;2023-07-28T09:22:18;66587.59;;;-147.51;100.00
64354;BME280;50681;53.334;-6.536;2023-07-28T09:24:44;66587.59;;;-147.51;100.00
64354;BME280;50681;53.334;-6.536;2023-07-28T09:27:22;66587.59;;;-147.51;100.00
64354;BME280;50681;53.334;-6.536;2023-07-28T09:29:49;66587.59;;;-147.51;100.00
64354;BME280;50681;53.334;-6.536;2023-07-28T09:32:16;66587.59;;;-147.51;100.00
64354;BME280;50681;53.334;-6.536;2023-07-28T09:35:05;66587.59;;;-147.51;100.00
64354;BME280;50681;53.334;-6.536;2023-07-28T09:37:33;66587.59;;;-147.51;100.00
64354;BME280;50681;53.334;-6.536;2023-07-28T09:40:00;66587.59;;;-147.51;100.00
64354;BME280;50681;53.334;-6.536;2023-07-28T09:42:30;66587.59;;;-147.51;100.00
64354;BME280;50681;53.334;-6.536;2023-07-28T09:44:56;66587.59;;;-147.51;100.00
64354;BME280;50681;53.334;-6.536;2023-07-28T09:47:21;66587.59;;;-147.51;100.00
64354;BME280;50681;53.334;-6.536;2023-07-28T09:49:48;66587.59;;;-147.51;100.00
64354;BME280;50681;53.334;-6.536;2023-07-28T09:52:17;66587.59;;;-147.51;100.00
64354;BME280;50681;53.334;-6.536;2023-07-28T09:54:46;66587.59;;;-147.51;100.00
64354;BME280;50681;53.334;-6.536;2023-07-28T09:57:19;66587.59;;;-147.51;100.00
64354;BME280;50681;53.334;-6.536;2023-07-28T09:59:49;66587.59;;;-147.51;100.00
64354;BME280;50681;53.334;-6.536;2023-07-28T10:02:18;66587.59;;;-147.51;100.00
64354;BME280;50681;53.334;-6.536;2023-07-28T10:04:43;66587.59;;;-147.51;100.00
64354;BME280;50681;53.334;-6.536;2023-07-28T10:07:09;66587.59;;;-147.51;100.00
64354;BME280;50681;53.334;-6.536;2023-07-28T10:11:33;99545.09;;;25.06;100.00
64354;BME280;50681;53.334;-6.536;2023-07-28T10:13:59;99540.75;;;25.08;100.00
64354;BME280;50681;53.334;-6.536;2023-07-28T10:16:37;99536.16;;;25.29;100.00
64354;BME280;50681;53.334;-6.536;2023-07-28T10:19:04;99535.41;;;25.25;100.00
64354;BME280;50681;53.334;-6.536;2023-07-28T10:21:31;99522.28;;;25.33;100.00
64354;BME280;50681;53.334;-6.536;2023-07-28T10:23:58;99522.28;;;25.33;100.00
64354;BME280;50681;53.334;-6.536;2023-07-28T10:26:40;99516.50;;;25.78;100.00
64354;BME280;50681;53.334;-6.536;2023-07-28T10:29:15;99519.88;;;26.13;100.00
64354;BME280;50681;53.334;-6.536;2023-07-28T10:31:52;99514.34;;;26.17;100.00
64354;BME280;50681;53.334;-6.536;2023-07-28T10:34:18;99517.34;;;26.26;100.00
64354;BME280;50681;53.334;-6.536;2023-07-28T10:36:43;99517.34;;;26.26;100.00
64354;BME280;50681;53.334;-6.536;2023-07-28T10:41:38;99517.34;;;26.26;100.00
64354;BME280;50681;53.334;-6.536;2023-07-28T10:44:04;99517.34;;;26.26;100.00
64354;BME280;50681;53.334;-6.536;2023-07-28T10:46:34;99501.75;;;26.97;100.00
64354;BME280;50681;53.334;-6.536;2023-07-28T10:49:17;99501.75;;;26.97;100.00
64354;BME280;50681;53.334;-6.536;2023-07-28T10:51:43;99497.84;;;27.31;100.00
64354;BME280;50681;53.334;-6.536;2023-07-28T10:54:12;99497.84;;;27.31;100.00
64354;BME280;50681;53.334;-6.536;2023-07-28T10:56:42;99497.84;;;27.31;100.00
64354;BME280;50681;53.334;-6.536;2023-07-28T10:59:16;99497.84;;;27.31;100.00
64354;BME280;50681;53.334;-6.536;2023-07-28T11:01:45;99497.84;;;27.31;100.00
64354;BME280;50681;53.334;-6.536;2023-07-28T11:04:19;99497.84;;;27.31;100.00
64354;BME280;50681;53.334;-6.536;2023-07-28T11:06:51;99497.84;;;27.31;100.00
64354;BME280;50681;53.334;-6.536;2023-07-28T11:09:18;99497.84;;;27.31;100.00
64354;BME280;50681;53.334;-6.536;2023-07-28T11:11:44;99497.84;;;27.31;100.00
64354;BME280;50681;53.334;-6.536;2023-07-28T11:14:10;99497.84;;;27.31;100.00
64354;BME280;50681;53.334;-6.536;2023-07-28T11:16:39;99497.84;;;27.31;100.00
64354;BME280;50681;53.334;-6.536;2023-07-28T11:19:10;99497.84;;;27.31;100.00
64354;BME280;50681;53.334;-6.536;2023-07-28T11:21:40;99497.84;;;27.31;100.00
64354;BME280;50681;53.334;-6.536;2023-07-28T11:24:09;99497.84;;;27.31;100.00
64354;BME280;50681;53.334;-6.536;2023-07-28T11:26:36;66587.59;;;-147.51;100.00
64354;BME280;50681;53.334;-6.536;2023-07-28T11:29:04;66587.59;;;-147.51;100.00
64354;BME280;50681;53.334;-6.536;2023-07-28T11:31:29;66587.59;;;-147.51;100.00
64354;BME280;50681;53.334;-6.536;2023-07-28T11:33:56;66587.59;;;-147.51;100.00
64354;BME280;50681;53.334;-6.536;2023-07-28T11:36:26;66587.59;;;-147.51;100.00
64354;BME280;50681;53.334;-6.536;2023-07-28T11:38:53;66587.59;;;-147.51;100.00
64354;BME280;50681;53.334;-6.536;2023-07-28T11:41:20;66587.59;;;-147.51;100.00
64354;BME280;50681;53.334;-6.536;2023-07-28T11:43:48;66587.59;;;-147.51;100.00
64354;BME280;50681;53.334;-6.536;2023-07-28T11:46:35;66587.59;;;-147.51;100.00
64354;BME280;50681;53.334;-6.536;2023-07-28T11:49:15;66587.59;;;-147.51;100.00
64354;BME280;50681;53.334;-6.536;2023-07-28T11:51:43;66587.59;;;-147.51;100.00
64354;BME280;50681;53.334;-6.536;2023-07-28T11:54:13;66587.59;;;-147.51;100.00
64354;BME280;50681;53.334;-6.536;2023-07-28T11:56:41;66587.59;;;-147.51;100.00
64354;BME280;50681;53.334;-6.536;2023-07-28T11:59:06;66587.59;;;-147.51;100.00
64354;BME280;50681;53.334;-6.536;2023-07-28T12:01:32;66587.59;;;-147.51;100.00
64354;BME280;50681;53.334;-6.536;2023-07-28T12:03:58;66587.59;;;-147.51;100.00
64354;BME280;50681;53.334;-6.536;2023-07-28T12:06:28;66587.59;;;-147.51;100.00
64354;BME280;50681;53.334;-6.536;2023-07-28T12:09:04;66587.59;;;-147.51;100.00
64354;BME280;50681;53.334;-6.536;2023-07-28T12:11:30;66587.59;;;-147.51;100.00
64354;BME280;50681;53.334;-6.536;2023-07-28T12:13:56;66587.59;;;-147.51;100.00
64354;BME280;50681;53.334;-6.536;2023-07-28T12:16:37;66587.59;;;-147.51;100.00
64354;BME280;50681;53.334;-6.536;2023-07-28T12:19:03;66587.59;;;-147.51;100.00
64354;BME280;50681;53.334;-6.536;2023-07-28T12:21:30;66587.59;;;-147.51;100.00
64354;BME280;50681;53.334;-6.536;2023-07-28T12:23:56;66587.59;;;-147.51;100.00
64354;BME280;50681;53.334;-6.536;2023-07-28T12:26:22;66587.59;;;-147.51;100.00
64354;BME280;50681;53.334;-6.536;2023-07-28T12:28:47;66587.59;;;-147.51;100.00
64354;BME280;50681;53.334;-6.536;2023-07-28T12:31:13;66587.59;;;-147.51;100.00
64354;BME280;50681;53.334;-6.536;2023-07-28T12:33:38;66587.59;;;-147.51;100.00